Secane, Pennsylvania
Current Conditions -  °F | °C
As of 9:54 AM on Thursday 30 Oct 2014 (Local Time) from KPHL Reporting Station
Scattered Clouds Scattered Clouds  
Wind Chill: 53°   Ceiling: Unl
Heat Index: 53°   Visibility: 10mi
Dew Point: 40°   Wind: 13mph
Humidity: 61%   Direction: 350°N
Pressure: 30.03"   Gusts: NA
Location:  39.9228°N, 75.2984°W
Report Text: KPHL 301354Z 35011KT 10SM SCT075 12/04 A3003 RMK AO2 SLP167 T01170044
Loading
Personal Weather Stations






























Interactive Weather Map
Tropical Storm Tracking
New forecast layout! Learn more

10-Day Weather Forecast

Advertisements
Track Severe Weather on mobile